Time;durP1;ratioP1;P1;durP2;ratioP2;P2;SDS_P1;SDS_P2;PMS_P1;PMS_P2;Temp;Humidity;BMP_temperature;BMP_pressure;BME280_temperature;BME280_humidity;BME280_pressure;Samples;Min_cycle;Max_cycle;Signal;HPM_P1;HPM_P2
2021/01/16 00:01:42;;;;;;;13.05;8.88;;;;;;;-1.25;75.15;101618.31;5103835;28;20216;-65
2021/01/16 00:04:08;;;;;;;10.25;7.82;;;;;;;-1.26;75.31;101613.09;5104682;28;20209;-65
2021/01/16 00:06:35;;;;;;;12.43;8.70;;;;;;;-1.23;75.09;101606.03;5104967;28;20229;-66
2021/01/16 00:09:03;;;;;;;12.27;8.38;;;;;;;-1.33;75.51;101604.47;5103764;28;21209;-66
2021/01/16 00:11:30;;;;;;;13.27;8.48;;;;;;;-1.54;76.63;101604.00;5104507;28;20201;-65
2021/01/16 00:13:56;;;;;;;12.93;8.93;;;;;;;-1.65;76.94;101600.75;5104662;28;20213;-65
2021/01/16 00:16:23;;;;;;;14.95;8.60;;;;;;;-1.62;76.84;101598.03;5103100;28;20197;-65
2021/01/16 00:18:49;;;;;;;11.75;9.40;;;;;;;-1.64;76.96;101598.97;5104566;28;20526;-65
2021/01/16 00:21:15;;;;;;;13.52;9.55;;;;;;;-1.76;77.52;101590.44;5104760;28;20226;-65
2021/01/16 00:23:41;;;;;;;12.18;9.05;;;;;;;-1.56;77.10;101589.22;5103297;28;20233;-65
2021/01/16 00:26:07;;;;;;;11.63;8.30;;;;;;;-1.24;75.80;101593.78;5103997;28;20212;-65
2021/01/16 00:28:34;;;;;;;14.50;8.50;;;;;;;-1.52;76.60;101583.84;5104451;28;20209;-65
2021/01/16 00:31:01;;;;;;;10.98;7.50;;;;;;;-1.53;76.39;101590.00;5103170;28;20447;-65
2021/01/16 00:33:29;;;;;;;11.98;8.68;;;;;;;-1.52;76.43;101590.88;5103716;28;20227;-65
2021/01/16 00:35:56;;;;;;;13.45;8.98;;;;;;;-1.58;76.33;101565.63;5103527;28;20604;-65
2021/01/16 00:38:23;;;;;;;11.95;8.52;;;;;;;-1.68;76.46;101571.06;5094432;28;20665;-65
2021/01/16 00:40:50;;;;;;;16.02;8.30;;;;;;;-1.68;76.73;101576.31;5093207;28;20653;-65
2021/01/16 00:43:17;;;;;;;12.20;8.43;;;;;;;-1.74;77.67;101578.16;5103347;28;20215;-65
2021/01/16 00:45:44;;;;;;;10.65;7.47;;;;;;;-1.58;77.26;101578.75;5103118;28;20204;-65
2021/01/16 00:48:12;;;;;;;14.60;8.30;;;;;;;-1.58;77.53;101576.13;5102333;28;20263;-65
2021/01/16 00:50:38;;;;;;;13.90;7.97;;;;;;;-1.61;77.65;101578.81;5104622;28;20201;-66
2021/01/16 00:53:04;;;;;;;11.73;7.88;;;;;;;-1.68;77.69;101578.94;5099972;28;20476;-65
2021/01/16 00:55:30;;;;;;;11.90;7.70;;;;;;;-1.64;77.14;101578.84;5084839;28;20194;-65
2021/01/16 00:57:57;;;;;;;13.38;8.70;;;;;;;-1.60;76.91;101585.75;5084086;28;20229;-65
2021/01/16 01:00:25;;;;;;;15.80;9.07;;;;;;;-1.52;77.11;101588.25;5084619;28;20436;-65
2021/01/16 01:02:52;;;;;;;9.70;7.68;;;;;;;-1.59;77.25;101584.88;5083816;28;20233;-65
2021/01/16 01:05:20;;;;;;;12.65;8.73;;;;;;;-1.49;76.75;101582.06;5067828;28;20202;-65
2021/01/16 01:07:47;;;;;;;12.60;8.35;;;;;;;-1.55;76.80;101583.91;5066470;28;20364;-65
2021/01/16 01:10:13;;;;;;;10.97;7.67;;;;;;;-1.50;76.50;101582.97;5084197;28;20205;-65
2021/01/16 01:12:40;;;;;;;11.77;8.10;;;;;;;-1.56;77.19;101576.09;5084330;28;20609;-65
2021/01/16 01:15:07;;;;;;;12.20;8.45;;;;;;;-1.59;76.94;101584.88;5084446;28;20218;-65
2021/01/16 01:17:33;;;;;;;19.13;7.82;;;;;;;-1.33;76.04;101586.13;5083760;28;20200;-65
2021/01/16 01:20:01;;;;;;;11.77;7.93;;;;;;;-1.55;77.22;101586.53;5069783;28;20224;-65
2021/01/16 01:22:30;;;;;;;11.40;8.02;;;;;;;-1.53;76.94;101586.50;5078213;28;20202;-65
2021/01/16 01:24:58;;;;;;;12.48;8.10;;;;;;;-1.59;77.59;101584.88;5084167;28;20243;-66
2021/01/16 01:27:24;;;;;;;11.20;7.90;;;;;;;-1.34;77.02;101581.75;5083652;28;20221;-65
2021/01/16 01:29:50;;;;;;;15.18;9.95;;;;;;;-1.41;76.82;101577.53;5083592;28;20443;-65
2021/01/16 01:32:16;;;;;;;16.83;9.20;;;;;;;-1.53;76.68;101570.75;5083047;28;20210;-65
2021/01/16 01:34:42;;;;;;;11.75;8.15;;;;;;;-1.42;77.02;101578.44;5083705;28;20210;-66
2021/01/16 01:37:09;;;;;;;11.13;8.20;;;;;;;-1.57;77.49;101583.06;5083854;28;20228;-65
2021/01/16 01:39:35;;;;;;;12.82;8.85;;;;;;;-1.48;77.32;101581.19;5083006;28;20245;-65
2021/01/16 01:42:02;;;;;;;13.15;8.90;;;;;;;-1.58;77.25;101578.75;5083527;28;20206;-65
2021/01/16 01:44:28;;;;;;;12.50;8.95;;;;;;;-1.40;76.88;101572.25;5083275;28;20236;-65
2021/01/16 01:46:54;;;;;;;14.02;9.13;;;;;;;-1.45;76.62;101578.50;5083118;28;20267;-65
2021/01/16 01:49:20;;;;;;;15.65;9.52;;;;;;;-1.48;76.61;101575.94;5082302;28;20296;-65
2021/01/16 01:51:47;;;;;;;16.60;8.70;;;;;;;-1.49;77.49;101574.19;5083493;28;20228;-65
2021/01/16 01:54:15;;;;;;;12.90;8.50;;;;;;;-1.47;77.25;101575.06;5076373;28;20233;-65
2021/01/16 01:56:42;;;;;;;14.47;9.60;;;;;;;-1.42;76.81;101568.81;5101734;28;20235;-65
2021/01/16 01:59:09;;;;;;;11.13;7.80;;;;;;;-1.43;76.66;101568.84;5103307;28;20811;-65
2021/01/16 02:01:38;;;;;;;11.75;8.45;;;;;;;-1.61;77.72;101564.84;5103069;28;20220;-65
2021/01/16 02:04:04;;;;;;;12.98;8.32;;;;;;;-1.61;77.98;101573.56;5103493;28;20231;-65
2021/01/16 02:06:31;;;;;;;12.30;9.13;;;;;;;-1.46;77.40;101568.88;5103212;28;20298;-65
2021/01/16 02:08:57;;;;;;;10.73;7.87;;;;;;;-1.28;76.34;101563.28;5103539;28;20213;-65
2021/01/16 02:11:24;;;;;;;15.40;9.25;;;;;;;-1.42;76.70;101566.19;5103409;28;20505;-65
2021/01/16 02:13:50;;;;;;;11.57;8.37;;;;;;;-1.50;77.33;101562.00;5103095;28;20209;-65
2021/01/16 02:16:23;;;;;;;14.05;9.20;;;;;;;-1.55;77.13;101562.94;5102813;28;21093;-65
2021/01/16 02:18:51;;;;;;;12.73;8.23;;;;;;;-1.51;77.51;101558.50;5098822;28;20266;-65
2021/01/16 02:21:18;;;;;;;12.70;8.63;;;;;;;-1.38;76.53;101556.50;5103039;28;20497;-65
2021/01/16 02:23:52;;;;;;;14.02;8.30;;;;;;;-1.33;76.05;101557.25;5103497;28;20234;-65
2021/01/16 02:26:48;;;;;;;12.55;8.30;;;;;;;-1.44;77.14;101547.00;5103084;28;20200;-65
2021/01/16 02:29:15;;;;;;;13.67;8.37;;;;;;;-1.46;77.30;101546.13;5103116;28;20258;-66
2021/01/16 02:31:44;;;;;;;12.57;9.10;;;;;;;-1.37;76.38;101543.34;5102650;28;20456;-65
2021/01/16 02:34:14;;;;;;;12.27;8.32;;;;;;;-1.46;76.73;101542.66;5102848;28;20470;-65
2021/01/16 02:36:53;;;;;;;13.05;8.27;;;;;;;-1.49;77.46;101537.47;5103328;28;20256;-65
2021/01/16 02:39:24;;;;;;;12.70;9.27;;;;;;;-1.55;77.37;101541.09;5102910;28;20668;-65
2021/01/16 02:41:54;;;;;;;13.02;9.02;;;;;;;-1.67;77.90;101550.06;5103144;28;20478;-65
2021/01/16 02:44:27;;;;;;;12.73;8.70;;;;;;;-1.54;77.95;101541.06;5102912;28;20251;-65
2021/01/16 02:46:58;;;;;;;12.60;8.30;;;;;;;-1.60;78.10;101541.16;5102801;28;20244;-65
2021/01/16 02:49:37;;;;;;;15.30;9.00;;;;;;;-1.23;76.26;101535.16;5100501;28;20673;-65
2021/01/16 02:52:06;;;;;;;12.70;9.38;;;;;;;-1.39;77.15;101531.13;5102664;28;20209;-65
2021/01/16 02:54:35;;;;;;;10.52;7.50;;;;;;;-1.33;77.08;101538.88;5102485;28;20244;-65
2021/01/16 02:57:03;;;;;;;17.52;8.35;;;;;;;-1.39;77.83;101533.75;5103117;28;20197;-65
2021/01/16 02:59:31;;;;;;;13.02;8.43;;;;;;;-1.35;76.89;101528.44;5102851;28;20240;-65
2021/01/16 03:01:58;;;;;;;15.93;9.13;;;;;;;-1.41;77.04;101527.69;5101603;28;20315;-65
2021/01/16 03:04:24;;;;;;;12.00;8.18;;;;;;;-1.40;77.48;101532.91;5102634;28;20330;-65
2021/01/16 03:06:51;;;;;;;14.15;8.60;;;;;;;-1.34;76.81;101526.66;5102690;28;20240;-65
2021/01/16 03:09:18;;;;;;;11.00;7.80;;;;;;;-1.36;77.23;101531.94;5102538;28;20252;-65
2021/01/16 03:11:45;;;;;;;12.15;8.15;;;;;;;-1.41;77.91;101527.69;5102527;28;21444;-65
2021/01/16 03:14:13;;;;;;;11.05;7.55;;;;;;;-1.43;77.35;101517.22;5102363;28;20200;-65
2021/01/16 03:16:53;;;;;;;12.00;8.48;;;;;;;-1.44;77.69;101518.13;5102045;28;20482;-65
2021/01/16 03:19:24;;;;;;;13.13;8.90;;;;;;;-1.41;77.52;101515.44;5099850;28;20212;-65
2021/01/16 03:21:50;;;;;;;21.52;9.20;;;;;;;-1.49;77.95;101521.72;5102554;28;20279;-65
2021/01/16 03:24:17;;;;;;;12.48;7.72;;;;;;;-1.42;77.43;101518.97;5101947;28;20754;-65
2021/01/16 03:26:43;;;;;;;16.35;8.98;;;;;;;-1.33;77.53;101510.88;5102431;28;20726;-65
2021/01/16 03:29:09;;;;;;;11.13;8.20;;;;;;;-1.41;77.59;101502.31;5102053;28;20301;-65
2021/01/16 03:31:35;;;;;;;13.15;8.75;;;;;;;-1.44;77.96;101504.13;5101936;28;20239;-65
2021/01/16 03:34:02;;;;;;;12.48;7.53;;;;;;;-1.45;77.53;101505.06;5101843;28;20527;-65
2021/01/16 03:36:28;;;;;;;12.05;8.32;;;;;;;-1.54;78.15;101501.72;5102352;28;20217;-65
2021/01/16 03:38:55;;;;;;;11.90;8.00;;;;;;;-1.35;76.97;101506.59;5102002;28;20233;-65
2021/01/16 03:41:21;;;;;;;13.40;8.70;;;;;;;-1.44;78.17;101504.13;5102690;28;20205;-65
2021/01/16 03:43:47;;;;;;;13.88;9.05;;;;;;;-1.28;77.43;101502.06;5101674;28;20660;-65
2021/01/16 03:46:13;;;;;;;13.15;8.60;;;;;;;-1.41;77.56;101498.84;5102441;28;20228;-65
2021/01/16 03:48:40;;;;;;;11.65;7.60;;;;;;;-1.28;77.45;101487.19;5101881;28;20257;-65
2021/01/16 03:51:08;;;;;;;13.53;8.77;;;;;;;-1.37;77.52;101490.88;5082527;28;20202;-65
2021/01/16 03:53:34;;;;;;;11.18;8.07;;;;;;;-1.47;78.07;101494.59;5093041;28;20522;-65
2021/01/16 03:56:00;;;;;;;13.75;7.70;;;;;;;-1.37;77.32;101484.75;5102569;28;20351;-65
2021/01/16 03:58:26;;;;;;;14.50;8.48;;;;;;;-1.44;78.05;101498.91;5101411;28;20256;-65
2021/01/16 04:00:52;;;;;;;12.65;7.72;;;;;;;-1.53;77.89;101494.72;5101531;28;20225;-65
2021/01/16 04:03:18;;;;;;;14.07;8.30;;;;;;;-1.39;78.25;101494.41;5101167;28;20209;-65
2021/01/16 04:05:45;;;;;;;11.02;7.30;;;;;;;-1.40;78.30;101495.31;5102065;28;20197;-65
2021/01/16 04:08:12;;;;;;;14.70;8.52;;;;;;;-1.49;78.51;101488.53;5101826;28;20270;-65
2021/01/16 04:10:38;;;;;;;11.80;8.18;;;;;;;-1.50;78.88;101492.03;5102370;28;20186;-65
2021/01/16 04:13:04;;;;;;;12.65;8.40;;;;;;;-1.40;78.46;101493.56;5103924;28;20205;-65
2021/01/16 04:15:30;;;;;;;11.23;8.80;;;;;;;-1.44;78.17;101491.03;5105655;28;20206;-65
2021/01/16 04:17:56;;;;;;;11.13;7.63;;;;;;;-1.47;79.98;101491.97;5104895;28;20212;-65
2021/01/16 04:20:22;;;;;;;15.27;8.38;;;;;;;-1.46;78.12;101487.56;5105493;28;20193;-66
2021/01/16 04:22:50;;;;;;;10.73;7.97;;;;;;;-1.40;77.82;101482.22;5105287;28;20205;-65
2021/01/16 04:25:17;;;;;;;12.30;8.10;;;;;;;-1.48;78.35;101489.38;5105264;28;20254;-65
2021/01/16 04:27:43;;;;;;;12.65;8.02;;;;;;;-1.46;78.31;101483.19;5105213;28;20216;-65
2021/01/16 04:30:10;;;;;;;12.48;8.70;;;;;;;-1.39;77.99;101481.28;5105186;28;20233;-65
2021/01/16 04:32:36;;;;;;;14.07;8.43;;;;;;;-1.37;78.66;101490.00;5104626;28;20212;-65
2021/01/16 04:35:03;;;;;;;14.25;9.02;;;;;;;-1.20;76.95;101484.38;5105599;28;20709;-65
2021/01/16 04:37:29;;;;;;;11.27;8.50;;;;;;;-1.45;78.22;101487.56;5104957;28;20233;-65
2021/01/16 04:39:55;;;;;;;12.52;7.72;;;;;;;-1.46;78.58;101490.19;5087972;28;20263;-65
2021/01/16 04:42:22;;;;;;;11.90;8.97;;;;;;;-1.44;78.50;101478.78;5092643;28;20233;-65
2021/01/16 04:44:49;;;;;;;13.30;8.57;;;;;;;-1.44;78.39;101477.91;5105342;28;20554;-65
2021/01/16 04:47:23;;;;;;;13.90;9.20;;;;;;;-1.21;77.50;101478.28;5104369;28;20300;-65
2021/01/16 04:49:49;;;;;;;14.18;9.05;;;;;;;-1.38;77.44;101476.03;5105060;28;20871;-65
2021/01/16 04:52:19;;;;;;;14.45;8.77;;;;;;;-1.38;77.72;101477.78;5105036;28;20281;-65
2021/01/16 04:54:46;;;;;;;13.43;8.40;;;;;;;-1.42;77.44;101473.53;5104303;28;20233;-65
2021/01/16 04:57:13;;;;;;;14.70;9.63;;;;;;;-1.40;77.43;101471.72;5105263;28;20220;-65
2021/01/16 04:59:40;;;;;;;12.30;8.07;;;;;;;-1.36;77.16;101463.72;5104735;28;20585;-65
2021/01/16 05:02:10;;;;;;;14.50;9.77;;;;;;;-1.34;76.58;101461.06;5104080;28;20446;-65
2021/01/16 05:04:38;;;;;;;16.57;8.30;;;;;;;-1.39;77.12;101466.44;5104766;28;20217;-65
2021/01/16 05:07:05;;;;;;;9.32;7.25;;;;;;;-1.35;76.78;101462.00;5104511;28;20509;-65
2021/01/16 05:09:32;;;;;;;13.88;8.07;;;;;;;-1.37;76.25;101453.25;5092003;28;20249;-65
2021/01/16 05:12:21;;;;;;;13.65;8.35;;;;;;;-1.31;75.80;101455.75;5094928;28;20232;-65
2021/01/16 05:15:03;;;;;;;14.10;8.52;;;;;;;-1.46;76.93;101462.19;5104345;28;20237;-65
2021/01/16 05:17:31;;;;;;;10.95;8.07;;;;;;;-1.46;76.32;101456.97;5104057;28;20236;-65
2021/01/16 05:19:57;;;;;;;12.40;7.35;;;;;;;-1.39;76.54;101444.56;5104783;28;20216;-65
2021/01/16 05:22:23;;;;;;;12.40;8.80;;;;;;;-1.44;77.32;101446.44;5104151;28;20197;-65
2021/01/16 05:24:49;;;;;;;14.00;8.20;;;;;;;-1.40;77.48;101438.47;5103492;28;20212;-65
2021/01/16 05:27:20;;;;;;;12.20;7.50;;;;;;;-1.44;77.35;101439.44;5103880;28;20245;-65
2021/01/16 05:29:47;;;;;;;14.53;8.73;;;;;;;-1.40;77.27;101432.38;5103904;28;20444;-65
2021/01/16 05:32:14;;;;;;;12.80;8.03;;;;;;;-1.45;77.48;101429.00;5103286;28;20483;-65
2021/01/16 05:34:41;;;;;;;11.05;7.30;;;;;;;-1.46;77.87;101427.25;5104047;28;20779;-65
2021/01/16 05:37:07;;;;;;;11.85;8.02;;;;;;;-1.48;77.57;101414.16;5104084;28;20240;-65
2021/01/16 05:39:34;;;;;;;14.35;7.75;;;;;;;-1.49;77.38;101414.19;5091183;28;20210;-65
2021/01/16 05:42:01;;;;;;;9.55;7.55;;;;;;;-1.53;77.65;101416.91;5099889;28;20197;-65
2021/01/16 05:44:28;;;;;;;13.70;8.63;;;;;;;-1.57;77.33;101407.38;5103362;28;20268;-65
2021/01/16 05:46:55;;;;;;;11.80;8.27;;;;;;;-1.54;77.38;101402.06;5103479;28;20574;-65
2021/01/16 05:49:22;;;;;;;12.05;7.97;;;;;;;-1.63;77.62;101406.66;5103037;28;20209;-65
2021/01/16 05:51:50;;;;;;;15.25;9.05;;;;;;;-1.58;77.54;101400.44;5103922;28;20205;-65
2021/01/16 05:54:17;;;;;;;13.00;9.00;;;;;;;-1.58;77.73;101395.19;5092439;28;20276;-65
2021/01/16 05:56:44;;;;;;;13.17;7.77;;;;;;;-1.57;77.47;101393.41;5096702;28;20201;-65
2021/01/16 05:59:11;;;;;;;15.68;10.15;;;;;;;-1.62;77.78;101388.25;5103283;28;20447;-65
2021/01/16 06:01:39;;;;;;;14.63;9.13;;;;;;;-1.55;78.03;101378.50;5102798;28;20232;-65
2021/01/16 06:04:06;;;;;;;12.70;8.50;;;;;;;-1.59;78.54;101385.56;5103081;28;20671;-65
2021/01/16 06:06:36;;;;;;;18.27;10.65;;;;;;;-1.46;78.56;101383.50;5103878;28;20455;-65
2021/01/16 06:09:04;;;;;;;14.85;10.00;;;;;;;-1.58;78.63;101395.19;5103186;28;20245;-65
2021/01/16 06:11:37;;;;;;;15.20;9.73;;;;;;;-1.68;78.63;101393.66;5103451;28;20239;-65
2021/01/16 06:14:05;;;;;;;12.40;9.52;;;;;;;-1.61;79.53;101392.63;5103010;28;20209;-65
2021/01/16 06:16:46;;;;;;;20.92;10.88;;;;;;;-1.63;78.80;101396.16;5102910;28;20240;-64
2021/01/16 06:19:16;;;;;;;20.50;9.98;;;;;;;-1.65;79.51;101401.47;5102728;28;20302;-65
2021/01/16 06:21:43;;;;;;;12.73;8.70;;;;;;;-1.73;79.67;101391.13;5103376;28;20267;-65
2021/01/16 06:24:14;;;;;;;18.05;10.02;;;;;;;-1.63;79.51;101380.44;5094146;28;20339;-65
2021/01/16 06:26:42;;;;;;;15.20;10.55;;;;;;;-1.56;78.68;101376.78;5083325;28;20717;-66
2021/01/16 06:29:24;;;;;;;17.13;9.38;;;;;;;-1.47;78.67;101384.44;5100934;28;20221;-64
2021/01/16 06:31:50;;;;;;;18.70;10.88;;;;;;;-1.54;79.38;101382.84;5097852;28;20574;-64
2021/01/16 06:34:28;;;;;;;18.25;10.60;;;;;;;-1.49;78.98;101382.72;5102753;28;20251;-64
2021/01/16 06:37:04;;;;;;;17.33;11.35;;;;;;;-1.39;78.62;101379.88;5102954;28;20200;-64
2021/01/16 06:39:34;;;;;;;17.23;11.97;;;;;;;-1.47;78.65;101384.44;5102712;28;20205;-64
2021/01/16 06:42:06;;;;;;;16.67;11.20;;;;;;;-1.42;78.54;101372.06;5102736;28;20463;-64
2021/01/16 06:44:32;;;;;;;18.03;11.07;;;;;;;-1.34;77.98;101371.88;5102259;28;20663;-64
2021/01/16 06:46:59;;;;;;;17.30;11.07;;;;;;;-1.39;78.30;101384.25;5102376;28;20522;-66
2021/01/16 06:49:26;;;;;;;18.07;11.10;;;;;;;-1.41;78.84;101376.41;5102304;28;20455;-63
2021/01/16 06:51:53;;;;;;;17.92;12.10;;;;;;;-1.35;78.26;101368.41;5102868;28;20447;-63
2021/01/16 06:54:24;;;;;;;16.40;11.00;;;;;;;-1.34;78.45;101366.63;5102479;28;20240;-66
2021/01/16 06:57:06;;;;;;;20.10;10.73;;;;;;;-1.45;78.91;101353.78;5103117;28;20502;-67
2021/01/16 06:59:33;;;;;;;17.27;10.63;;;;;;;-1.47;78.73;101352.97;5100226;28;20455;-65
2021/01/16 07:01:59;;;;;;;16.02;10.80;;;;;;;-1.42;79.41;101355.47;5102372;28;20596;-66
2021/01/16 07:04:28;;;;;;;19.58;12.18;;;;;;;-1.28;79.14;101352.53;5101121;28;20216;-67
2021/01/16 07:06:55;;;;;;;21.10;12.70;;;;;;;-1.26;78.82;101353.34;5102669;28;20248;-66
2021/01/16 07:09:23;;;;;;;20.05;11.52;;;;;;;-1.24;78.70;101352.38;5102034;28;20491;-66
2021/01/16 07:11:51;;;;;;;19.30;11.70;;;;;;;-1.36;78.91;101348.31;5103178;28;20227;-66
2021/01/16 07:14:18;;;;;;;23.93;13.80;;;;;;;-1.31;79.43;101349.97;5096913;28;20506;-65
2021/01/16 07:16:45;;;;;;;20.38;13.05;;;;;;;-1.32;78.98;101359.56;5100308;28;20508;-65
2021/01/16 07:19:12;;;;;;;17.95;11.02;;;;;;;-1.39;79.43;101353.66;5097995;28;20255;-65
2021/01/16 07:21:39;;;;;;;19.40;13.00;;;;;;;-1.30;79.67;101352.56;5080115;28;20221;-65
2021/01/16 07:24:08;;;;;;;17.92;11.07;;;;;;;-1.28;78.90;101340.25;5090618;28;20287;-66
2021/01/16 07:26:36;;;;;;;17.08;11.80;;;;;;;-1.33;79.36;101348.22;5100394;28;20224;-65
2021/01/16 07:29:08;;;;;;;22.40;11.40;;;;;;;-1.24;79.15;101344.53;5099757;28;20204;-65
2021/01/16 07:31:39;;;;;;;18.30;12.50;;;;;;;-1.24;78.49;101330.53;5099748;28;20532;-65
2021/01/16 07:34:06;;;;;;;19.42;13.18;;;;;;;-1.35;79.77;101325.56;5099891;28;20837;-65
2021/01/16 07:36:34;;;;;;;19.63;12.40;;;;;;;-1.31;79.74;101334.22;5100066;28;20624;-66
2021/01/16 07:39:04;;;;;;;20.38;12.80;;;;;;;-1.36;79.65;101329.09;5099682;28;20205;-66
2021/01/16 07:41:32;;;;;;;19.60;12.40;;;;;;;-1.38;80.10;101323.88;5093792;28;20209;-66
2021/01/16 07:44:09;;;;;;;22.38;12.05;;;;;;;-1.37;79.29;101329.97;5097012;28;20209;-65
2021/01/16 07:46:36;;;;;;;20.03;12.43;;;;;;;-1.32;80.22;101341.22;5102455;28;20216;-65
2021/01/16 07:49:06;;;;;;;16.47;11.30;;;;;;;-0.69;84.85;101339.59;5105378;28;20986;-66
2021/01/16 07:51:34;;;;;;;19.97;12.13;;;;;;;0.26;76.62;101338.59;5088404;28;20440;-66
2021/01/16 07:54:02;;;;;;;16.53;10.80;;;;;;;0.13;77.27;101339.88;5105766;28;20974;-65
2021/01/16 07:56:38;;;;;;;19.50;12.40;;;;;;;0.10;73.16;101338.19;5105076;28;20465;-65
2021/01/16 07:59:23;;;;;;;23.97;13.80;;;;;;;-0.42;74.41;101330.09;5106003;28;20447;-65
2021/01/16 08:02:05;;;;;;;27.37;14.10;;;;;;;0.24;75.93;101331.66;5103787;28;20455;-65
2021/01/16 08:04:37;;;;;;;25.47;13.40;;;;;;;0.30;73.72;101324.44;5103452;28;20454;-65
2021/01/16 08:07:05;;;;;;;22.53;12.40;;;;;;;-0.34;75.68;101335.13;5097417;28;21134;-66
2021/01/16 08:09:55;;;;;;;28.97;13.27;;;;;;;-0.50;75.20;101323.34;5102329;28;20958;-65
2021/01/16 08:12:22;;;;;;;28.67;12.83;;;;;;;-0.76;76.25;101322.28;5099591;28;20940;-65
2021/01/16 08:14:50;;;;;;;30.63;14.63;;;;;;;-0.82;77.37;101307.53;5103941;28;20649;-66
2021/01/16 08:17:19;;;;;;;29.20;13.80;;;;;;;-0.73;77.37;101318.72;5103557;28;20475;-66
2021/01/16 08:20:06;;;;;;;23.63;13.70;;;;;;;-0.67;76.71;101311.53;5104540;28;20485;-66
2021/01/16 08:22:37;;;;;;;25.10;14.30;;;;;;;-0.67;76.97;101322.03;5103393;28;20884;-66
2021/01/16 08:25:04;;;;;;;21.70;13.53;;;;;;;-0.43;76.43;101320.47;5103774;28;20523;-65
2021/01/16 08:27:32;;;;;;;18.70;12.53;;;;;;;-0.65;77.24;101317.59;5103980;28;20689;-64
2021/01/16 08:30:06;;;;;;;22.13;12.03;;;;;;;-0.72;77.85;101316.03;5102826;28;20455;-65
2021/01/16 08:32:32;;;;;;;16.93;11.80;;;;;;;-0.71;77.81;101312.53;5098357;28;20500;-66
2021/01/16 08:35:01;;;;;;;19.60;11.83;;;;;;;-0.69;77.21;101318.59;5097112;28;20448;-65
2021/01/16 08:37:32;;;;;;;20.55;11.60;;;;;;;-0.64;76.79;101311.44;5103966;28;20491;-65
2021/01/16 08:39:59;;;;;;;19.40;11.87;;;;;;;-0.58;76.53;101318.28;5102616;28;20251;-65
2021/01/16 08:42:26;;;;;;;18.08;11.35;;;;;;;-0.62;76.80;101316.66;5104177;28;20443;-65
2021/01/16 08:44:54;;;;;;;23.50;12.82;;;;;;;-0.80;76.26;101321.53;5102986;28;20209;-65
2021/01/16 08:47:21;;;;;;;19.80;12.77;;;;;;;-0.78;76.63;101310.97;5101836;28;20236;-66
2021/01/16 08:49:47;;;;;;;23.17;13.70;;;;;;;-0.85;76.90;101312.91;5103685;28;20458;-66
2021/01/16 08:52:29;;;;;;;27.63;14.63;;;;;;;-0.64;76.56;101314.06;5103460;28;20216;-67
2021/01/16 08:54:59;;;;;;;22.20;12.57;;;;;;;-0.66;76.26;101309.75;5096895;28;20492;-65
2021/01/16 08:57:29;;;;;;;22.63;12.70;;;;;;;-0.65;77.57;101309.72;5110428;28;20439;-66
2021/01/16 08:59:56;;;;;;;21.13;12.50;;;;;;;-0.68;76.46;101303.69;5103146;28;20518;-67
2021/01/16 09:02:23;;;;;;;20.43;12.87;;;;;;;-0.76;76.73;101301.28;5102061;28;20462;-66
2021/01/16 09:04:49;;;;;;;18.40;11.90;;;;;;;-0.66;75.99;101297.50;5104313;28;20454;-66
2021/01/16 09:07:17;;;;;;;20.80;12.03;;;;;;;-0.62;75.58;101301.75;5114910;28;20520;-65
2021/01/16 09:09:52;;;;;;;19.50;12.17;;;;;;;-0.60;75.62;101306.97;5100420;28;20915;-66
2021/01/16 09:12:22;;;;;;;19.83;12.77;;;;;;;-0.68;75.14;101299.28;5105263;28;20452;-65
2021/01/16 09:14:49;;;;;;;20.33;12.47;;;;;;;-0.62;75.54;101300.91;5113390;28;20982;-67
2021/01/16 09:17:18;;;;;;;20.93;12.87;;;;;;;-0.60;75.56;101299.09;5099168;28;20827;-68
2021/01/16 09:19:45;;;;;;;19.93;11.60;;;;;;;-0.65;75.40;101300.97;5103673;28;20461;-67
2021/01/16 09:22:18;;;;;;;17.70;10.87;;;;;;;-0.52;75.36;101294.50;5084169;28;20436;-69
2021/01/16 09:24:44;;;;;;;17.87;11.20;;;;;;;-0.48;74.74;101295.25;5100706;28;20455;-67
2021/01/16 09:27:24;;;;;;;20.60;12.80;;;;;;;-0.18;74.18;101292.63;5103202;28;20467;-66
2021/01/16 09:29:50;;;;;;;23.07;11.27;;;;;;;-0.10;73.15;101299.38;5099010;28;20443;-65
2021/01/16 09:32:30;;;;;;;15.50;10.60;;;;;;;-0.15;73.14;101297.78;5100381;28;20458;-64
2021/01/16 09:34:57;;;;;;;15.60;9.73;;;;;;;-0.13;73.01;101290.72;5102555;28;20455;-67
2021/01/16 09:37:24;;;;;;;14.20;9.23;;;;;;;-0.07;70.85;101291.41;5095044;28;20478;-65
2021/01/16 09:40:00;;;;;;;14.93;9.83;;;;;;;-0.09;71.75;101295.81;5094204;28;20436;-66
2021/01/16 09:42:26;;;;;;;14.50;10.33;;;;;;;-0.08;71.26;101289.66;5100337;28;20526;-65
2021/01/16 09:44:53;;;;;;;13.87;10.20;;;;;;;-0.25;70.97;101292.78;5100113;28;20494;-65
2021/01/16 09:47:50;;;;;;;15.20;9.30;;;;;;;-0.20;71.04;101284.78;5099538;28;20489;-65
2021/01/16 09:50:18;;;;;;;14.63;9.73;;;;;;;-0.25;71.90;101274.41;5102865;28;20447;-66
2021/01/16 09:52:46;;;;;;;15.40;10.63;;;;;;;-0.21;71.05;101275.16;5103354;28;20443;-68
2021/01/16 09:55:20;;;;;;;11.07;8.50;;;;;;;-0.22;70.76;101278.72;5101258;28;20487;-66
2021/01/16 09:57:46;;;;;;;15.57;9.83;;;;;;;-0.10;71.81;101280.97;5100039;28;20434;-66
2021/01/16 10:00:14;;;;;;;12.50;9.57;;;;;;;0.01;70.58;101271.91;5100849;28;20477;-66
2021/01/16 10:02:40;;;;;;;17.77;10.00;;;;;;;0.13;70.11;101264.47;5099552;28;20451;-67
2021/01/16 10:05:09;;;;;;;16.40;10.10;;;;;;;0.19;69.08;101252.88;5100492;28;20447;-64
2021/01/16 10:07:39;;;;;;;13.70;9.10;;;;;;;0.07;69.95;101254.16;5098849;28;20483;-65
2021/01/16 10:10:18;;;;;;;17.83;10.03;;;;;;;0.13;69.36;101253.94;5096891;28;20434;-65
2021/01/16 10:12:45;;;;;;;15.40;9.43;;;;;;;0.39;68.27;101248.75;5099962;28;20435;-65
2021/01/16 10:15:13;;;;;;;15.33;9.10;;;;;;;0.34;68.19;101254.16;5100975;28;20443;-65
2021/01/16 10:17:45;;;;;;;14.67;10.10;;;;;;;0.32;68.25;101248.09;5099641;28;20439;-65
2021/01/16 10:20:13;;;;;;;16.83;9.77;;;;;;;0.49;68.12;101250.19;5100183;28;20461;-67
2021/01/16 10:22:44;;;;;;;15.80;10.37;;;;;;;0.47;68.64;101244.09;5099944;28;20431;-65
2021/01/16 10:25:12;;;;;;;18.93;10.60;;;;;;;0.63;68.08;101231.28;5100328;28;20916;-65
2021/01/16 10:27:45;;;;;;;14.00;10.00;;;;;;;0.14;69.61;101233.75;5101230;28;20467;-66
2021/01/16 10:30:19;;;;;;;15.27;9.47;;;;;;;0.17;69.65;101223.16;5099761;28;20451;-66
2021/01/16 10:32:45;;;;;;;19.43;10.17;;;;;;;0.17;69.84;101223.16;5098639;28;20971;-65
2021/01/16 10:35:22;;;;;;;17.13;9.70;;;;;;;0.03;70.17;101223.59;5097921;28;20443;-65
2021/01/16 10:37:51;;;;;;;13.00;9.67;;;;;;;-0.03;71.20;101219.41;5099950;28;20567;-66
2021/01/16 10:40:19;;;;;;;16.50;9.33;;;;;;;0.24;70.71;101227.31;5100972;28;20459;-66
2021/01/16 10:42:47;;;;;;;16.37;10.40;;;;;;;0.16;70.17;101221.44;5100131;28;20477;-66
2021/01/16 10:45:14;;;;;;;17.70;10.87;;;;;;;0.06;70.60;101210.38;5100780;28;20968;-66
2021/01/16 10:47:43;;;;;;;17.50;10.70;;;;;;;0.08;70.52;101207.69;5100789;28;20525;-66
2021/01/16 10:50:10;;;;;;;18.60;11.50;;;;;;;0.13;70.78;101209.25;5099276;28;20481;-66
2021/01/16 10:52:37;;;;;;;15.10;9.30;;;;;;;0.36;69.54;101205.00;5100144;28;20565;-66
2021/01/16 10:55:06;;;;;;;19.13;10.27;;;;;;;0.28;69.45;101191.22;5097756;28;20482;-66
2021/01/16 10:57:44;;;;;;;13.90;9.93;;;;;;;0.41;68.99;101192.53;5101224;28;20500;-66
2021/01/16 11:00:12;;;;;;;16.40;10.23;;;;;;;0.40;68.14;101184.69;5098767;28;20454;-66
2021/01/16 11:02:41;;;;;;;13.90;9.40;;;;;;;0.36;69.06;101184.84;5097254;28;20439;-66
2021/01/16 11:05:23;;;;;;;15.57;9.90;;;;;;;0.50;68.57;101184.31;5098682;28;20475;-65
2021/01/16 11:07:50;;;;;;;14.00;9.17;;;;;;;0.42;69.42;101189.00;5096173;28;20475;-66
2021/01/16 11:10:18;;;;;;;15.20;10.37;;;;;;;0.56;69.20;101183.28;5100487;28;20863;-66
2021/01/16 11:12:45;;;;;;;22.50;11.63;;;;;;;0.71;69.40;101195.91;5100516;28;20757;-66
2021/01/16 11:15:28;;;;;;;16.40;10.50;;;;;;;0.26;70.98;101187.81;5098110;28;20450;-65
2021/01/16 11:17:56;;;;;;;15.60;10.07;;;;;;;0.36;69.86;101187.47;5098882;28;20442;-66
2021/01/16 11:20:27;;;;;;;14.27;10.03;;;;;;;0.21;69.76;101177.47;5100060;28;20803;-66
2021/01/16 11:23:30;;;;;;;14.63;9.87;;;;;;;0.33;70.34;101179.66;5101625;28;20468;-65